Time;durP1;ratioP1;P1;durP2;ratioP2;P2;SDS_P1;SDS_P2;PMS_P1;PMS_P2;Temp;Humidity;BMP_temperature;BMP_pressure;BME280_temperature;BME280_humidity;BME280_pressure;Samples;Min_cycle;Max_cycle;Signal;HPM_P1;HPM_P2
2023/10/16 00:00:47;;;;;;;1.20;0.80;;;;;;;18.23;52.39;97588.96;104881;1261;61317;-44
2023/10/16 00:03:17;;;;;;;0.80;0.70;;;;;;;18.23;52.34;97587.35;104842;1264;75044;-44
2023/10/16 00:05:49;;;;;;;0.70;0.70;;;;;;;18.23;52.31;97585.48;104893;1264;64815;-44
2023/10/16 00:08:19;;;;;;;0.90;0.80;;;;;;;18.23;52.36;97585.02;107130;1264;72402;-44
2023/10/16 00:10:59;;;;;;;1.00;0.70;;;;;;;18.23;52.34;97587.88;105089;1266;61279;-44
2023/10/16 00:13:28;;;;;;;0.80;0.70;;;;;;;18.23;52.35;97587.04;108840;1262;60160;-45
2023/10/16 00:15:55;;;;;;;2.40;1.10;;;;;;;18.23;52.34;97584.70;108834;1261;73435;-45
2023/10/16 00:18:26;;;;;;;1.60;1.00;;;;;;;18.23;52.42;97588.50;108862;1262;66319;-45
2023/10/16 00:20:55;;;;;;;0.80;0.80;;;;;;;18.24;52.30;97587.67;108829;1260;71032;-44
2023/10/16 00:23:30;;;;;;;1.30;0.80;;;;;;;18.25;52.28;97588.09;108861;1260;59359;-44
2023/10/16 00:25:58;;;;;;;0.90;0.80;;;;;;;18.26;52.31;97588.73;108842;1261;59063;-45
2023/10/16 00:28:24;;;;;;;0.90;0.70;;;;;;;18.27;52.26;97590.30;105339;1265;74707;-44
2023/10/16 00:30:51;;;;;;;0.70;0.70;;;;;;;18.28;52.22;97592.96;105097;1266;65322;-44
2023/10/16 00:33:18;;;;;;;1.40;0.90;;;;;;;18.28;52.24;97590.73;105238;1260;72706;-44
2023/10/16 00:35:53;;;;;;;0.80;0.70;;;;;;;18.29;52.18;97594.61;105221;1265;61357;-44
2023/10/16 00:38:22;;;;;;;0.90;0.80;;;;;;;18.29;52.16;97594.46;105077;1267;61228;-44
2023/10/16 00:43:34;;;;;;;1.20;0.70;;;;;;;18.28;52.12;97590.41;105217;1267;64919;-43
2023/10/16 00:46:10;;;;;;;1.40;0.90;;;;;;;18.27;52.12;97590.86;105159;1274;72422;-43
2023/10/16 00:48:38;;;;;;;1.60;0.90;;;;;;;18.27;52.05;97587.67;105245;1265;61244;-44
2023/10/16 00:51:16;;;;;;;1.10;0.70;;;;;;;18.26;52.08;97586.02;105200;1265;61186;-43
2023/10/16 00:54:00;;;;;;;1.60;0.90;;;;;;;18.26;52.16;97586.00;104944;1262;75005;-45
2023/10/16 00:56:27;;;;;;;1.00;0.80;;;;;;;18.25;52.14;97582.83;105008;1265;65306;-45
2023/10/16 00:58:55;;;;;;;1.00;0.80;;;;;;;18.25;52.14;97579.40;105232;1260;72403;-45
2023/10/16 01:01:25;;;;;;;1.50;0.80;;;;;;;18.24;52.14;97578.39;105215;1265;61305;-44
2023/10/16 01:03:57;;;;;;;1.20;0.80;;;;;;;18.24;52.14;97576.75;105234;1266;61356;-45
2023/10/16 01:06:45;;;;;;;0.80;0.80;;;;;;;18.23;52.17;97574.80;105261;1274;74391;-45
2023/10/16 01:09:24;;;;;;;1.90;0.80;;;;;;;18.22;52.14;97577.02;105173;1268;66305;-44
2023/10/16 01:11:52;;;;;;;0.80;0.70;;;;;;;18.22;52.19;97575.69;104992;1265;72701;-45
2023/10/16 01:14:19;;;;;;;1.00;0.90;;;;;;;18.21;52.14;97577.14;105030;1274;61241;-44
2023/10/16 01:16:46;;;;;;;1.00;0.70;;;;;;;18.20;52.14;97574.96;105142;1261;61341;-45
2023/10/16 01:19:19;;;;;;;2.30;0.90;;;;;;;18.21;52.22;97574.73;105114;1265;74371;-45
2023/10/16 01:21:46;;;;;;;1.40;0.90;;;;;;;18.20;52.16;97573.48;105005;1266;65506;-44
2023/10/16 01:24:13;;;;;;;0.90;0.60;;;;;;;18.20;52.16;97575.32;104915;1265;72515;-45
2023/10/16 01:26:43;;;;;;;1.30;0.70;;;;;;;18.19;52.18;97576.79;105296;1265;61285;-45
2023/10/16 01:29:10;;;;;;;0.80;0.80;;;;;;;18.19;52.15;97578.73;105029;1261;61977;-44
2023/10/16 01:31:37;;;;;;;1.20;0.80;;;;;;;18.19;52.14;97577.24;105655;1265;74454;-44
2023/10/16 01:34:10;;;;;;;0.60;0.60;;;;;;;18.19;52.16;97580.34;105278;1265;66337;-44
2023/10/16 01:36:37;;;;;;;0.90;0.80;;;;;;;18.18;52.12;97579.86;105681;1264;71230;-44
2023/10/16 01:39:35;;;;;;;0.90;0.80;;;;;;;18.18;52.16;97582.80;105296;1274;61194;-44
2023/10/16 01:41:52;;;;;;;1.00;0.80;;;;;;;18.18;52.14;97588.77;105143;1262;61279;-44
2023/10/16 01:44:18;;;;;;;0.70;0.70;;;;;;;18.18;52.16;97594.27;104865;1266;75382;-44
2023/10/16 01:46:47;;;;;;;0.80;0.80;;;;;;;18.18;52.19;97592.48;105153;1265;66034;-44
2023/10/16 01:49:15;;;;;;;1.20;0.90;;;;;;;18.17;52.17;97595.70;104949;1265;71401;-45
2023/10/16 01:51:44;;;;;;;0.70;0.60;;;;;;;18.16;52.10;97594.06;105200;1265;61360;-44
2023/10/16 01:54:14;;;;;;;1.30;0.80;;;;;;;18.16;52.14;97590.65;104927;1260;61324;-44
2023/10/16 01:56:41;;;;;;;1.30;0.90;;;;;;;18.16;52.13;97594.14;105192;1267;74810;-43
2023/10/16 01:59:08;;;;;;;1.20;0.80;;;;;;;18.16;52.07;97597.23;104933;1266;65993;-45
2023/10/16 02:01:34;;;;;;;0.80;0.60;;;;;;;18.16;52.18;97599.40;104914;1260;72614;-44
2023/10/16 02:04:03;;;;;;;1.30;0.90;;;;;;;18.16;52.12;97601.49;105216;1266;61753;-44
2023/10/16 02:06:30;;;;;;;1.40;0.90;;;;;;;18.15;52.19;97601.94;105797;1265;61235;-44
2023/10/16 02:08:59;;;;;;;1.20;0.80;;;;;;;18.15;52.11;97607.36;105285;1264;75057;-44
2023/10/16 02:11:26;;;;;;;1.00;0.80;;;;;;;18.15;52.13;97607.65;105249;1264;66189;-44
2023/10/16 02:13:55;;;;;;;0.80;0.80;;;;;;;18.15;52.10;97608.20;105170;1265;72512;-44
2023/10/16 02:16:25;;;;;;;1.00;0.90;;;;;;;18.14;52.24;97610.40;105106;1267;61283;-43
2023/10/16 02:18:55;;;;;;;0.70;0.70;;;;;;;18.14;52.13;97608.63;105048;1263;61330;-44
2023/10/16 02:21:22;;;;;;;1.00;0.80;;;;;;;18.14;52.20;97606.77;105460;1262;74474;-44
2023/10/16 02:23:49;;;;;;;0.80;0.80;;;;;;;18.13;52.13;97610.02;105091;1267;66262;-44
2023/10/16 02:26:18;;;;;;;1.10;0.70;;;;;;;18.13;52.18;97613.34;104889;1260;72622;-43
2023/10/16 02:28:54;;;;;;;1.10;0.70;;;;;;;18.14;52.16;97617.90;105272;1267;61205;-44
2023/10/16 02:31:22;;;;;;;2.30;1.00;;;;;;;18.13;52.18;97617.90;105494;1263;61232;-44
2023/10/16 02:33:55;;;;;;;2.40;0.90;;;;;;;18.13;52.15;97618.44;105151;1261;74403;-44
2023/10/16 02:36:22;;;;;;;1.10;1.00;;;;;;;18.12;52.15;97619.75;105788;1264;66272;-46
2023/10/16 02:38:53;;;;;;;1.70;0.90;;;;;;;18.12;52.15;97621.51;105205;1261;72419;-44
2023/10/16 02:41:20;;;;;;;1.00;0.80;;;;;;;18.12;52.16;97617.02;105244;1266;61247;-44
2023/10/16 02:43:48;;;;;;;0.80;0.70;;;;;;;18.11;52.12;97620.58;105279;1260;61263;-44
2023/10/16 02:46:21;;;;;;;1.10;0.90;;;;;;;18.12;52.12;97619.57;105190;1261;74705;-44
2023/10/16 02:48:48;;;;;;;1.20;0.90;;;;;;;18.11;52.16;97616.46;105271;1262;65613;-44
2023/10/16 02:51:17;;;;;;;0.90;0.70;;;;;;;18.11;52.18;97618.39;105159;1265;72539;-44
2023/10/16 02:53:45;;;;;;;1.00;0.60;;;;;;;18.10;52.12;97620.61;105219;1274;61223;-44
2023/10/16 02:58:46;;;;;;;1.70;0.90;;;;;;;18.10;52.08;97621.23;105074;1260;75580;-44
2023/10/16 03:01:18;;;;;;;1.90;0.90;;;;;;;18.09;52.12;97624.15;104930;1266;65869;-44
2023/10/16 03:03:46;;;;;;;1.10;0.90;;;;;;;18.09;52.12;97623.23;104932;1265;70925;-44
2023/10/16 03:06:13;;;;;;;1.00;0.80;;;;;;;18.09;52.16;97626.48;105044;1264;61166;-45
2023/10/16 03:08:45;;;;;;;1.60;1.00;;;;;;;18.09;52.03;97626.55;105233;1261;61277;-43
2023/10/16 03:11:13;;;;;;;1.10;0.90;;;;;;;18.08;52.12;97630.64;105222;1262;74422;-44
2023/10/16 03:13:40;;;;;;;0.80;0.70;;;;;;;18.08;52.09;97632.11;105241;1264;67119;-44
2023/10/16 03:16:11;;;;;;;0.90;0.80;;;;;;;18.08;52.15;97631.41;105251;1265;72771;-44
2023/10/16 03:18:43;;;;;;;1.50;1.10;;;;;;;18.08;52.15;97625.04;105225;1267;61227;-43
2023/10/16 03:23:45;;;;;;;2.20;0.90;;;;;;;18.07;52.08;97638.27;105233;1266;74594;-43
2023/10/16 03:26:32;;;;;;;1.00;0.70;;;;;;;18.07;52.09;97636.88;105206;1260;66062;-43
2023/10/16 03:29:00;;;;;;;1.20;0.80;;;;;;;18.07;52.15;97635.00;105056;1265;72320;-44
2023/10/16 03:31:30;;;;;;;0.80;0.80;;;;;;;18.06;52.10;97636.70;105022;1264;61274;-44
2023/10/16 03:33:58;;;;;;;1.00;0.70;;;;;;;18.07;52.08;97640.80;105150;1260;61273;-43
2023/10/16 03:36:25;;;;;;;0.80;0.70;;;;;;;18.06;52.07;97645.53;104924;1264;74484;-45
2023/10/16 03:38:52;;;;;;;1.80;1.00;;;;;;;18.06;52.05;97645.60;105024;1264;66029;-44
2023/10/16 03:43:56;;;;;;;0.90;0.70;;;;;;;18.06;52.08;97646.98;105268;1267;61276;-44
2023/10/16 03:46:26;;;;;;;1.10;0.90;;;;;;;18.05;52.13;97648.52;105200;1261;61362;-44
2023/10/16 03:48:54;;;;;;;1.70;0.90;;;;;;;18.05;52.06;97652.38;104933;1265;74591;-44
2023/10/16 03:51:21;;;;;;;1.20;0.90;;;;;;;18.05;52.01;97658.56;104945;1265;64926;-44
2023/10/16 03:53:52;;;;;;;1.30;0.90;;;;;;;18.05;52.10;97665.07;104913;1265;73720;-44
2023/10/16 03:56:20;;;;;;;1.20;0.80;;;;;;;18.05;52.10;97668.55;105026;1267;61282;-44
2023/10/16 03:58:47;;;;;;;1.20;0.90;;;;;;;18.04;52.11;97668.07;105044;1264;61382;-44
2023/10/16 04:01:20;;;;;;;1.00;0.80;;;;;;;18.04;52.10;97668.30;104966;1265;74597;-44
2023/10/16 04:03:47;;;;;;;1.40;0.90;;;;;;;18.04;52.10;97667.37;104982;1267;65202;-43
2023/10/16 04:06:21;;;;;;;1.00;0.70;;;;;;;18.04;52.16;97669.53;104993;1261;72608;-43
2023/10/16 04:08:49;;;;;;;1.20;0.80;;;;;;;18.04;52.10;97676.04;104902;1264;61277;-44
2023/10/16 04:11:16;;;;;;;1.30;0.80;;;;;;;18.03;52.03;97673.39;105055;1265;61285;-44
2023/10/16 04:13:52;;;;;;;1.10;0.90;;;;;;;18.03;52.04;97672.21;105280;1261;74431;-44
2023/10/16 04:16:30;;;;;;;1.00;0.90;;;;;;;18.03;51.98;97669.35;105204;1274;66002;-45
2023/10/16 04:19:34;;;;;;;1.30;1.00;;;;;;;18.03;52.05;97672.29;105261;1261;72337;-44
2023/10/16 04:21:57;;;;;;;1.50;1.00;;;;;;;18.02;52.04;97675.98;105308;1265;61253;-44
2023/10/16 04:26:57;;;;;;;1.60;1.00;;;;;;;18.02;52.07;97675.36;105212;1271;74384;-45
2023/10/16 04:29:34;;;;;;;1.00;0.90;;;;;;;18.01;52.05;97678.52;105225;1265;65611;-45
2023/10/16 04:34:34;;;;;;;1.10;0.90;;;;;;;18.01;52.01;97678.05;105130;1260;61277;-45
2023/10/16 04:53:25;;;;;;;2.20;0.90;;;;;;;17.99;52.02;97694.86;104752;1263;74675;-44
2023/10/16 05:01:17;;;;;;;1.00;0.70;;;;;;;17.99;51.99;97703.02;105035;1260;62312;-44
2023/10/16 05:06:38;;;;;;;1.50;1.10;;;;;;;17.99;51.97;97701.14;105550;1263;74677;-43
2023/10/16 05:17:58;;;;;;;1.30;1.10;;;;;;;18.00;51.94;97718.27;105190;1261;61386;-46
2023/10/16 06:15:37;;;;;;;1.60;1.10;;;;;;;18.15;52.79;97726.59;105013;1260;73679;-44
2023/10/16 06:18:07;;;;;;;2.60;1.20;;;;;;;18.16;52.92;97722.84;104927;1267;67191;-45
2023/10/16 06:20:37;;;;;;;2.30;1.20;;;;;;;18.18;52.85;97728.23;105178;1264;73329;-43
2023/10/16 06:23:04;;;;;;;2.60;1.00;;;;;;;18.19;52.92;97733.91;105143;1261;62627;-45
2023/10/16 06:25:35;;;;;;;2.50;1.00;;;;;;;18.20;52.79;97729.38;105477;1261;61381;-44
2023/10/16 06:28:08;;;;;;;1.70;1.20;;;;;;;18.20;52.78;97734.41;108523;1260;74405;-44
2023/10/16 06:30:37;;;;;;;2.90;1.10;;;;;;;18.20;52.70;97732.41;105122;1265;67129;-44
2023/10/16 06:33:05;;;;;;;1.30;1.10;;;;;;;18.21;52.68;97731.73;105175;1265;71499;-44
2023/10/16 06:35:33;;;;;;;1.50;1.00;;;;;;;18.21;52.67;97733.04;105695;1261;61373;-45
2023/10/16 06:38:00;;;;;;;1.10;1.00;;;;;;;18.23;52.60;97727.98;105687;1261;61404;-44
2023/10/16 06:40:32;;;;;;;1.00;0.80;;;;;;;18.23;52.52;97732.56;105379;1261;74495;-43
2023/10/16 06:43:25;;;;;;;2.40;1.20;;;;;;;18.23;52.62;97729.23;105050;1266;66691;-44
2023/10/16 06:45:56;;;;;;;1.70;1.10;;;;;;;18.23;52.68;97733.33;104998;1265;73817;-42
2023/10/16 06:48:28;;;;;;;2.20;1.40;;;;;;;18.23;52.79;97736.66;105001;1265;61240;-42
2023/10/16 06:51:02;;;;;;;3.10;1.20;;;;;;;18.24;52.75;97736.99;105080;1265;61236;-43
2023/10/16 06:53:30;;;;;;;3.10;1.30;;;;;;;18.24;52.75;97739.48;105180;1261;74529;-42
2023/10/16 06:55:58;;;;;;;3.90;1.30;;;;;;;18.24;52.73;97742.42;105001;1260;66371;-45
2023/10/16 06:58:26;;;;;;;2.40;1.20;;;;;;;18.24;52.73;97737.23;105069;1262;72894;-44
2023/10/16 07:00:55;;;;;;;3.40;1.40;;;;;;;18.25;52.65;97738.73;105041;1261;61212;-44
2023/10/16 07:03:22;;;;;;;2.40;1.30;;;;;;;18.24;52.65;97737.70;105121;1265;61365;-44
2023/10/16 07:05:49;;;;;;;4.80;1.50;;;;;;;18.24;52.68;97744.06;104950;1267;74558;-44
2023/10/16 07:08:20;;;;;;;3.60;1.30;;;;;;;18.24;52.66;97742.27;105207;1265;64867;-43
2023/10/16 07:10:52;;;;;;;3.40;1.30;;;;;;;18.24;52.65;97743.90;105184;1265;72570;-43
2023/10/16 07:13:27;;;;;;;2.90;1.30;;;;;;;18.24;52.54;97744.29;105016;1260;61270;-46
2023/10/16 07:16:07;;;;;;;5.30;1.60;;;;;;;18.23;52.54;97744.65;104879;1268;61338;-44
2023/10/16 07:18:35;;;;;;;2.10;1.20;;;;;;;18.23;52.61;97742.48;105082;1265;74510;-44
2023/10/16 07:23:34;;;;;;;3.80;1.40;;;;;;;18.23;52.55;97749.21;104955;1276;71975;-45
2023/10/16 07:26:12;;;;;;;3.70;1.20;;;;;;;18.23;52.58;97752.08;105118;1261;61249;-43
2023/10/16 07:28:39;;;;;;;2.40;1.30;;;;;;;18.23;52.52;97749.28;104891;1267;61300;-44
2023/10/16 07:31:10;;;;;;;2.70;1.30;;;;;;;18.23;52.44;97756.33;105116;1261;75450;-43
2023/10/16 07:33:39;;;;;;;3.10;1.40;;;;;;;18.23;52.53;97751.67;105101;1261;65465;-45
2023/10/16 07:36:11;;;;;;;4.10;1.60;;;;;;;18.23;52.49;97751.08;105146;1260;72514;-43
2023/10/16 07:38:38;;;;;;;3.80;1.30;;;;;;;18.23;52.55;97743.92;105086;1261;61284;-44
2023/10/16 07:41:09;;;;;;;2.80;1.60;;;;;;;18.22;52.51;97746.11;105053;1265;61323;-42
2023/10/16 07:43:37;;;;;;;3.70;1.50;;;;;;;18.23;52.56;97744.02;105051;1261;75751;-42
2023/10/16 07:48:52;;;;;;;2.50;1.40;;;;;;;18.23;52.70;97743.92;105134;1265;72413;-44
2023/10/16 07:51:21;;;;;;;3.60;1.30;;;;;;;18.22;52.75;97745.54;105081;1264;61163;-44
2023/10/16 07:53:50;;;;;;;2.70;1.50;;;;;;;18.23;52.77;97744.40;104996;1261;62071;-44
2023/10/16 07:58:55;;;;;;;4.00;1.60;;;;;;;18.24;52.95;97741.64;105070;1265;66227;-43
2023/10/16 08:01:36;;;;;;;4.20;1.30;;;;;;;18.24;52.91;97740.63;105431;1260;72662;-45
2023/10/16 08:04:18;;;;;;;4.80;1.50;;;;;;;18.25;52.99;97743.98;106013;1265;61261;-45
2023/10/16 08:06:47;;;;;;;2.60;1.30;;;;;;;18.24;52.98;97745.84;105227;1264;61277;-45
2023/10/16 08:11:57;;;;;;;3.70;1.60;;;;;;;18.26;53.01;97748.91;104970;1265;66470;-43
2023/10/16 08:14:24;;;;;;;3.50;1.50;;;;;;;18.26;53.01;97749.92;104985;1261;71690;-43
2023/10/16 08:17:14;;;;;;;4.20;1.60;;;;;;;18.27;53.08;97751.09;105021;1260;61329;-44
2023/10/16 08:19:42;;;;;;;4.10;1.50;;;;;;;18.27;52.98;97751.56;105036;1261;61158;-42
2023/10/16 08:22:09;;;;;;;2.50;1.40;;;;;;;18.27;52.91;97753.26;105024;1265;75466;-45
2023/10/16 08:24:43;;;;;;;6.00;1.40;;;;;;;18.27;52.95;97749.46;105112;1262;66584;-44
2023/10/16 08:27:19;;;;;;;3.10;1.40;;;;;;;18.27;53.02;97752.55;105149;1261;72482;-44
2023/10/16 08:29:59;;;;;;;4.70;1.80;;;;;;;18.27;52.97;97750.93;104816;1262;62369;-44
2023/10/16 08:32:53;;;;;;;2.60;1.50;;;;;;;18.27;52.94;97756.90;104811;1259;61381;-42
2023/10/16 08:35:20;;;;;;;3.10;1.60;;;;;;;18.27;52.82;97755.59;105029;1265;74072;-43
2023/10/16 08:37:56;;;;;;;4.40;1.20;;;;;;;18.27;52.79;97755.91;104859;1260;66989;-45
2023/10/16 08:40:35;;;;;;;4.00;1.60;;;;;;;18.27;52.81;97761.64;104743;1265;73587;-47
2023/10/16 08:43:07;;;;;;;2.80;1.60;;;;;;;18.27;52.88;97760.16;104868;1267;61272;-43
2023/10/16 08:45:47;;;;;;;3.70;2.00;;;;;;;18.27;52.93;97760.71;104740;1259;61158;-46
2023/10/16 08:48:19;;;;;;;4.00;1.30;;;;;;;18.28;52.97;97767.09;104842;1263;358684;-45
2023/10/16 08:50:53;;;;;;;5.10;1.90;;;;;;;18.28;53.07;97767.39;105021;1262;67027;-45
2023/10/16 08:53:30;;;;;;;4.30;1.70;;;;;;;18.29;53.20;97773.06;105159;1264;73266;-46
2023/10/16 08:56:12;;;;;;;3.70;1.40;;;;;;;18.29;53.20;97772.08;105158;1261;61302;-45
2023/10/16 08:58:49;;;;;;;4.50;1.60;;;;;;;18.30;53.23;97773.64;105202;1260;61533;-43
2023/10/16 09:01:18;;;;;;;6.70;1.60;;;;;;;18.31;53.29;97776.06;105027;1266;74521;-44
2023/10/16 09:03:50;;;;;;;6.30;1.60;;;;;;;18.31;53.32;97773.90;105218;1266;66014;-46
2023/10/16 09:06:22;;;;;;;2.90;1.40;;;;;;;18.31;53.46;97776.16;105155;1265;72572;-43
2023/10/16 09:08:54;;;;;;;4.90;1.60;;;;;;;18.32;53.49;97781.69;105066;1261;61289;-42
2023/10/16 09:11:21;;;;;;;4.10;1.40;;;;;;;18.33;53.44;97775.95;104900;1260;61323;-44
2023/10/16 09:13:53;;;;;;;2.80;1.70;;;;;;;18.34;53.51;97778.63;105066;1260;74696;-43
2023/10/16 09:16:23;;;;;;;4.10;1.20;;;;;;;18.34;53.53;97785.47;104788;1269;66079;-42
2023/10/16 09:18:51;;;;;;;1.60;1.10;;;;;;;18.34;53.52;97784.07;104956;1265;72435;-45
2023/10/16 09:21:28;;;;;;;2.90;1.60;;;;;;;18.34;53.39;97785.00;104989;1265;61291;-43
2023/10/16 09:24:02;;;;;;;3.60;1.50;;;;;;;18.35;53.40;97791.30;104918;1261;61280;-44
2023/10/16 09:26:32;;;;;;;2.60;1.50;;;;;;;18.35;53.39;97790.75;105641;1261;75155;-43
2023/10/16 09:29:04;;;;;;;2.60;1.30;;;;;;;18.35;53.39;97794.70;104970;1260;66350;-44
2023/10/16 09:31:32;;;;;;;2.00;1.20;;;;;;;18.35;53.46;97798.33;105594;1260;73719;-44
2023/10/16 09:33:59;;;;;;;1.80;1.20;;;;;;;18.35;53.44;97797.41;104993;1265;61267;-44
2023/10/16 09:36:29;;;;;;;2.90;1.60;;;;;;;18.35;53.42;97794.63;105095;1261;61258;-44
2023/10/16 09:38:56;;;;;;;2.90;1.10;;;;;;;18.36;53.44;97796.95;104953;1266;75293;-43
2023/10/16 09:43:56;;;;;;;2.50;1.30;;;;;;;18.36;53.47;97801.61;104879;1260;71329;-43
2023/10/16 09:46:44;;;;;;;2.90;1.40;;;;;;;18.36;53.39;97800.31;104930;1262;61309;-43
2023/10/16 09:49:21;;;;;;;3.60;1.40;;;;;;;18.36;53.35;97801.02;104898;1260;61302;-43
2023/10/16 09:51:49;;;;;;;2.40;1.30;;;;;;;18.36;53.51;97800.79;106843;1261;73750;-43
2023/10/16 09:54:34;;;;;;;3.30;1.50;;;;;;;18.36;53.62;97802.25;106152;1261;67741;-43
2023/10/16 09:57:01;;;;;;;4.10;1.50;;;;;;;18.37;53.64;97803.36;105656;1265;71585;-43
2023/10/16 09:59:33;;;;;;;3.20;1.40;;;;;;;18.38;53.67;97802.98;107621;1262;60112;-42
2023/10/16 10:02:05;;;;;;;3.00;1.40;;;;;;;18.38;53.67;97804.32;104881;1266;61217;-45
2023/10/16 10:04:35;;;;;;;2.20;1.30;;;;;;;18.39;53.70;97805.88;104998;1260;74569;-42
2023/10/16 10:07:11;;;;;;;4.90;1.40;;;;;;;18.39;53.69;97808.84;104934;1265;66974;-45
2023/10/16 10:09:44;;;;;;;3.00;1.50;;;;;;;18.39;53.66;97814.56;104834;1261;72453;-47
2023/10/16 10:12:42;;;;;;;3.80;1.40;;;;;;;18.39;53.77;97809.98;105089;1265;61247;-44
2023/10/16 10:15:22;;;;;;;3.70;1.60;;;;;;;18.39;53.69;97812.86;105074;1260;61194;-45
2023/10/16 10:17:55;;;;;;;1.80;1.10;;;;;;;18.39;53.65;97816.65;104882;1264;75347;-44
2023/10/16 10:20:39;;;;;;;2.60;1.30;;;;;;;18.39;53.67;97819.84;105020;1265;66154;-45
2023/10/16 10:23:06;;;;;;;1.90;1.20;;;;;;;18.39;53.65;97821.07;106225;1261;72937;-43
2023/10/16 10:25:45;;;;;;;1.70;1.10;;;;;;;18.38;53.64;97819.44;104988;1269;61340;-44
2023/10/16 10:28:22;;;;;;;2.20;1.20;;;;;;;18.39;53.68;97819.84;105029;1261;61293;-44
2023/10/16 10:30:50;;;;;;;3.50;1.30;;;;;;;18.39;53.69;97820.45;104947;1264;74393;-45
2023/10/16 10:33:38;;;;;;;3.50;1.50;;;;;;;18.39;53.65;97824.86;104968;1265;66117;-45
2023/10/16 10:36:30;;;;;;;4.90;1.50;;;;;;;18.39;53.66;97829.36;105032;1262;71959;-54
2023/10/16 10:42:03;;;;;;;2.10;1.40;;;;;;;18.38;53.61;97828.25;104960;1262;61375;-41
2023/10/16 10:44:37;;;;;;;2.60;1.40;;;;;;;18.38;53.67;97827.41;105060;1262;74423;-41
2023/10/16 10:47:30;;;;;;;3.00;1.10;;;;;;;18.39;53.75;97833.40;104990;1264;66278;-42
2023/10/16 10:50:00;;;;;;;4.20;1.40;;;;;;;18.39;54.01;97834.80;105127;1260;73674;-42
2023/10/16 10:52:32;;;;;;;3.70;1.10;;;;;;;18.40;54.14;97832.02;105456;1260;61334;-41
2023/10/16 10:55:06;;;;;;;5.60;1.60;;;;;;;18.41;54.32;97836.39;105134;1261;61359;-42
2023/10/16 10:57:34;;;;;;;4.80;1.60;;;;;;;18.42;54.45;97835.48;105122;1261;75319;-43
2023/10/16 11:00:44;;;;;;;5.90;1.40;;;;;;;18.42;54.42;97837.20;105211;1261;65931;-41
2023/10/16 11:03:05;;;;;;;3.90;1.20;;;;;;;18.43;54.41;97840.96;105124;1265;73750;-43
2023/10/16 11:05:33;;;;;;;3.80;1.30;;;;;;;18.44;54.39;97837.41;107097;1261;59831;-43
2023/10/16 11:10:41;;;;;;;2.30;1.30;;;;;;;18.46;54.42;97843.52;105080;1262;75520;-41
2023/10/16 11:13:12;;;;;;;2.70;1.50;;;;;;;18.47;54.45;97843.09;104974;1262;65390;-41
2023/10/16 11:15:48;;;;;;;2.20;1.30;;;;;;;18.47;54.44;97845.52;104884;1262;73850;-42
2023/10/16 11:18:20;;;;;;;2.40;1.50;;;;;;;18.48;54.43;97849.64;104893;1261;61335;-42
2023/10/16 11:20:49;;;;;;;3.30;1.20;;;;;;;18.49;54.42;97844.86;104992;1262;61365;-41
2023/10/16 11:23:17;;;;;;;2.60;1.20;;;;;;;18.49;54.42;97850.90;105038;1261;74511;-41
2023/10/16 11:25:51;;;;;;;2.50;1.20;;;;;;;18.49;54.26;97847.72;104999;1265;66386;-42
2023/10/16 11:28:22;;;;;;;3.20;1.50;;;;;;;18.49;54.32;97851.29;105015;1261;73550;-41
2023/10/16 11:30:53;;;;;;;4.40;1.50;;;;;;;18.49;54.33;97852.45;105148;1265;61275;-41
2023/10/16 11:33:34;;;;;;;4.40;1.40;;;;;;;18.49;54.48;97855.08;105008;1267;61346;-41
2023/10/16 11:36:06;;;;;;;3.00;1.10;;;;;;;18.49;54.45;97855.17;105090;1260;75072;-42
2023/10/16 11:38:34;;;;;;;3.60;1.30;;;;;;;18.49;54.42;97860.73;105067;1261;65440;-41
2023/10/16 11:41:20;;;;;;;3.90;1.40;;;;;;;18.49;54.39;97858.58;104862;1267;73275;-42
2023/10/16 11:43:51;;;;;;;4.90;1.50;;;;;;;18.49;54.47;97856.32;104871;1267;61256;-40
2023/10/16 11:46:28;;;;;;;2.60;1.30;;;;;;;18.49;54.51;97856.78;105012;1265;61740;-41
2023/10/16 11:49:22;;;;;;;3.10;1.30;;;;;;;18.48;54.45;97854.36;104926;1265;74946;-41
2023/10/16 11:52:08;;;;;;;2.60;1.30;;;;;;;18.48;54.52;97851.88;104966;1265;64851;-41
2023/10/16 11:54:36;;;;;;;5.00;1.40;;;;;;;18.48;54.55;97848.08;105017;1262;73607;-41
2023/10/16 11:57:04;;;;;;;4.00;1.80;;;;;;;18.48;54.56;97855.20;105100;1265;61275;-42
2023/10/16 11:59:32;;;;;;;2.70;1.60;;;;;;;18.47;54.54;97857.06;104903;1261;61248;-41
2023/10/16 12:02:11;;;;;;;6.20;1.40;;;;;;;18.48;54.54;97860.30;104996;1263;75015;-42
2023/10/16 12:04:40;;;;;;;2.50;1.50;;;;;;;18.47;54.59;97861.62;105021;1265;67106;-41
2023/10/16 12:07:07;;;;;;;3.20;1.60;;;;;;;18.47;54.62;97860.60;105056;1265;72340;-40
2023/10/16 12:09:42;;;;;;;2.70;1.40;;;;;;;18.47;54.51;97862.70;105181;1267;61351;-41
2023/10/16 12:12:19;;;;;;;5.00;1.70;;;;;;;18.47;54.60;97869.21;105037;1261;61340;-42
2023/10/16 12:14:49;;;;;;;4.40;1.60;;;;;;;18.47;54.57;97868.29;108263;1260;75368;-42
2023/10/16 12:17:19;;;;;;;4.00;1.70;;;;;;;18.47;54.69;97871.00;104861;1264;66058;-43
2023/10/16 12:19:46;;;;;;;11.50;1.60;;;;;;;18.49;54.56;97872.66;105094;1262;72428;-42
2023/10/16 12:22:20;;;;;;;3.70;1.60;;;;;;;18.48;54.40;97876.23;104981;1265;61247;-43
2023/10/16 12:24:47;;;;;;;4.00;1.70;;;;;;;18.49;54.33;97881.50;104972;1261;61253;-40
2023/10/16 12:27:15;;;;;;;3.90;1.40;;;;;;;18.48;54.37;97880.72;104890;1267;75789;-41
2023/10/16 12:29:43;;;;;;;7.10;1.60;;;;;;;18.49;54.42;97893.52;105010;1265;65090;-42
2023/10/16 12:32:12;;;;;;;5.80;1.60;;;;;;;18.49;54.44;97892.21;105142;1262;72392;-44
2023/10/16 12:34:40;;;;;;;4.50;1.80;;;;;;;18.49;54.35;97890.41;104975;1261;61376;-44
2023/10/16 12:37:07;;;;;;;4.50;2.00;;;;;;;18.48;54.28;97899.16;105174;1261;61364;-42
2023/10/16 12:39:48;;;;;;;3.50;1.60;;;;;;;18.49;54.37;97901.95;105493;1262;75632;-41
2023/10/16 12:42:15;;;;;;;4.10;1.70;;;;;;;18.48;54.25;97898.53;104852;1265;67062;-43
2023/10/16 12:44:43;;;;;;;5.20;1.70;;;;;;;18.47;54.25;97898.81;104974;1260;73011;-41
2023/10/16 12:47:11;;;;;;;4.00;1.60;;;;;;;18.47;54.21;97901.44;105124;1265;61504;-43
2023/10/16 12:49:53;;;;;;;4.40;1.80;;;;;;;18.47;54.15;97910.29;104796;1260;61600;-42
2023/10/16 12:52:20;;;;;;;2.00;1.40;;;;;;;18.47;54.08;97910.18;105148;1265;74558;-41
2023/10/16 12:54:52;;;;;;;3.80;1.40;;;;;;;18.47;54.14;97908.79;105009;1265;66691;-45
2023/10/16 12:57:19;;;;;;;8.50;1.70;;;;;;;18.47;54.16;97906.92;104905;1262;73726;-45
2023/10/16 12:59:45;;;;;;;5.10;1.50;;;;;;;18.47;54.20;97906.64;104882;1264;61327;-44
2023/10/16 13:02:13;;;;;;;2.50;1.60;;;;;;;18.49;54.19;97911.80;105004;1262;61373;-46
2023/10/16 13:04:41;;;;;;;3.40;1.70;;;;;;;18.51;54.19;97910.55;105118;1263;74561;-47
2023/10/16 13:07:07;;;;;;;4.70;1.80;;;;;;;18.52;54.15;97913.40;106284;1262;66153;-45
2023/10/16 13:09:35;;;;;;;2.30;1.40;;;;;;;18.54;54.16;97915.14;105078;1265;73474;-42
2023/10/16 13:12:08;;;;;;;2.60;1.30;;;;;;;18.57;54.22;97920.63;104997;1265;61301;-46
2023/10/16 13:14:35;;;;;;;4.40;1.80;;;;;;;18.57;54.11;97919.66;104998;1262;61384;-41
2023/10/16 13:17:08;;;;;;;3.50;1.40;;;;;;;18.59;54.08;97918.39;104928;1265;75413;-46
2023/10/16 13:19:35;;;;;;;5.00;1.50;;;;;;;18.60;54.10;97918.18;105151;1265;66224;-43
2023/10/16 13:22:10;;;;;;;3.80;1.50;;;;;;;18.61;54.14;97927.83;105143;1263;73539;-43
2023/10/16 13:24:37;;;;;;;2.60;1.30;;;;;;;18.62;54.23;97927.30;104938;1266;61251;-46
2023/10/16 13:27:06;;;;;;;3.60;1.20;;;;;;;18.62;54.17;97927.55;104811;1262;61378;-45
2023/10/16 13:29:37;;;;;;;3.00;1.50;;;;;;;18.62;54.23;97929.63;104785;1263;75470;-44
2023/10/16 13:32:07;;;;;;;2.50;1.60;;;;;;;18.61;54.15;97931.08;105158;1265;66938;-45
2023/10/16 13:34:36;;;;;;;3.60;1.80;;;;;;;18.60;54.15;97930.58;105195;1262;72697;-45
2023/10/16 13:37:09;;;;;;;4.10;1.60;;;;;;;18.59;54.21;97930.55;105065;1265;61265;-46
2023/10/16 13:39:38;;;;;;;3.90;1.40;;;;;;;18.58;54.07;97927.27;105907;1261;61134;-45
2023/10/16 13:42:08;;;;;;;2.80;1.70;;;;;;;18.56;54.06;97924.58;105602;1261;75175;-45
2023/10/16 13:44:38;;;;;;;2.50;1.50;;;;;;;18.56;53.99;97929.84;104915;1267;65914;-45
2023/10/16 13:47:05;;;;;;;2.80;1.40;;;;;;;18.55;54.00;97931.89;105122;1261;73596;-44